createdAt,value
2022-10-09T00:01:03.760Z,1.87
2022-10-09T00:03:32.105Z,1.63
2022-10-09T00:06:00.146Z,2.63
2022-10-09T00:08:28.530Z,1.90
2022-10-09T00:10:58.002Z,1.83
2022-10-09T00:13:25.955Z,2.20
2022-10-09T00:15:54.010Z,1.80
2022-10-09T00:18:22.023Z,2.00
2022-10-09T00:20:49.996Z,1.80
2022-10-09T00:23:18.431Z,1.90
2022-10-09T00:25:54.753Z,1.90
2022-10-09T00:28:26.129Z,2.10
2022-10-09T00:30:54.515Z,1.80
2022-10-09T00:33:22.697Z,2.17
2022-10-09T00:35:50.798Z,1.90
2022-10-09T00:38:18.864Z,1.70
2022-10-09T00:40:46.914Z,1.90
2022-10-09T00:43:17.585Z,1.97
2022-10-09T00:45:51.086Z,2.40
2022-10-09T00:48:20.842Z,1.80
2022-10-09T00:50:53.734Z,2.43
2022-10-09T00:53:23.823Z,1.87
2022-10-09T00:55:52.524Z,2.57
2022-10-09T00:58:22.563Z,2.20
2022-10-09T01:00:52.002Z,2.10
2022-10-09T01:03:20.006Z,1.70
2022-10-09T01:05:59.710Z,1.90
2022-10-09T01:08:32.675Z,1.77
2022-10-09T01:11:06.557Z,1.90
2022-10-09T01:13:39.832Z,2.40
2022-10-09T01:16:16.105Z,1.83
2022-10-09T01:18:52.738Z,2.20
2022-10-09T01:21:30.620Z,2.30
2022-10-09T01:24:15.952Z,2.03
2022-10-09T01:27:01.597Z,2.27
2022-10-09T01:29:33.823Z,2.53
2022-10-09T01:32:03.767Z,2.40
2022-10-09T01:34:33.586Z,2.10
2022-10-09T01:37:03.085Z,1.77
2022-10-09T01:39:32.419Z,2.13
2022-10-09T01:42:03.269Z,2.43
2022-10-09T01:44:33.147Z,2.60
2022-10-09T01:47:02.038Z,2.47
2022-10-09T01:49:44.931Z,2.40
2022-10-09T01:52:31.819Z,2.40
2022-10-09T01:55:09.556Z,2.10
2022-10-09T01:57:47.359Z,2.83
2022-10-09T02:00:15.957Z,2.30
2022-10-09T02:02:44.927Z,2.40
2022-10-09T02:05:18.458Z,3.00
2022-10-09T02:07:46.948Z,2.80
2022-10-09T02:10:16.726Z,2.30
2022-10-09T02:12:51.631Z,2.47
2022-10-09T02:15:21.322Z,2.10
2022-10-09T02:17:52.556Z,1.90
2022-10-09T02:20:26.010Z,2.27
2022-10-09T02:22:56.577Z,2.60
2022-10-09T02:25:25.142Z,2.43
2022-10-09T02:27:54.510Z,2.67
2022-10-09T02:30:25.741Z,2.23
2022-10-09T02:32:54.440Z,2.80
2022-10-09T02:35:23.175Z,2.80
2022-10-09T02:37:51.176Z,2.40
2022-10-09T02:40:19.185Z,2.47
2022-10-09T02:42:47.476Z,2.20
2022-10-09T02:45:17.102Z,2.57
2022-10-09T02:47:46.028Z,2.23
2022-10-09T02:50:14.177Z,2.53
2022-10-09T02:52:42.170Z,2.47
2022-10-09T02:55:10.499Z,2.60
2022-10-09T02:57:38.509Z,2.40
2022-10-09T03:00:07.584Z,2.50
2022-10-09T03:02:37.024Z,2.63
2022-10-09T03:05:05.492Z,2.30
2022-10-09T03:07:33.515Z,2.60
2022-10-09T03:10:01.509Z,2.67
2022-10-09T03:12:29.474Z,2.40
2022-10-09T03:14:57.459Z,2.60
2022-10-09T03:17:25.445Z,3.13
2022-10-09T03:19:54.830Z,2.30
2022-10-09T03:22:22.841Z,2.57
2022-10-09T03:24:50.826Z,2.50
2022-10-09T03:27:18.836Z,2.50
2022-10-09T03:29:46.819Z,2.80
2022-10-09T03:32:14.944Z,2.60
2022-10-09T03:34:42.990Z,2.60
2022-10-09T03:37:12.366Z,2.50
2022-10-09T03:39:40.323Z,2.70
2022-10-09T03:42:08.365Z,2.70
2022-10-09T03:44:36.357Z,2.77
2022-10-09T03:47:04.428Z,2.70
2022-10-09T03:49:32.571Z,3.33
2022-10-09T03:52:00.582Z,2.60
2022-10-09T03:54:29.918Z,2.67
2022-10-09T03:56:57.994Z,3.40
2022-10-09T03:59:26.079Z,2.50
2022-10-09T04:01:54.225Z,3.03
2022-10-09T04:04:22.204Z,2.63
2022-10-09T04:06:50.264Z,3.13
2022-10-09T04:09:18.298Z,2.70
2022-10-09T04:11:47.641Z,3.47
2022-10-09T04:14:15.642Z,3.13
2022-10-09T04:16:43.697Z,2.93
2022-10-09T04:19:12.199Z,3.07
2022-10-09T04:21:40.218Z,2.80
2022-10-09T04:24:08.697Z,3.10
2022-10-09T04:26:36.682Z,3.33
2022-10-09T04:29:06.228Z,3.10
2022-10-09T04:31:34.246Z,3.73
2022-10-09T04:34:02.266Z,3.00
2022-10-09T04:36:30.282Z,2.80
2022-10-09T04:38:58.340Z,3.30
2022-10-09T04:41:26.412Z,3.20
2022-10-09T04:43:56.422Z,3.00
2022-10-09T04:46:25.966Z,3.23
2022-10-09T04:48:53.949Z,2.83
2022-10-09T04:51:22.115Z,2.87
2022-10-09T04:53:50.106Z,3.00
2022-10-09T04:56:20.458Z,2.73
2022-10-09T04:58:49.357Z,3.27
2022-10-09T05:01:20.150Z,3.20
2022-10-09T05:03:50.011Z,3.47
2022-10-09T05:06:19.466Z,3.00
2022-10-09T05:08:47.977Z,3.30
2022-10-09T05:11:18.417Z,3.47
2022-10-09T05:13:47.999Z,2.90
2022-10-09T05:16:18.570Z,3.50
2022-10-09T05:18:50.245Z,2.90
2022-10-09T05:21:18.729Z,3.70
2022-10-09T05:23:47.434Z,3.27
2022-10-09T05:26:17.242Z,3.40
2022-10-09T05:28:45.669Z,3.70
2022-10-09T05:31:19.717Z,3.37
2022-10-09T05:33:49.867Z,3.20
2022-10-09T05:36:18.955Z,3.10
2022-10-09T05:38:47.373Z,2.93
2022-10-09T05:41:16.761Z,3.03
2022-10-09T05:43:47.225Z,3.00
2022-10-09T05:46:17.307Z,3.07
2022-10-09T05:48:47.321Z,3.40
2022-10-09T05:51:18.671Z,3.00
2022-10-09T05:53:48.415Z,3.87
2022-10-09T05:56:18.753Z,3.80
2022-10-09T05:58:51.392Z,3.77
2022-10-09T06:01:20.390Z,3.60
2022-10-09T06:03:51.504Z,3.77
2022-10-09T06:06:22.186Z,4.50
2022-10-09T06:08:50.633Z,4.20
2022-10-09T06:11:20.361Z,4.43
2022-10-09T06:13:49.641Z,4.40
2022-10-09T06:16:19.234Z,4.80
2022-10-09T06:18:49.619Z,4.40
2022-10-09T06:21:18.312Z,4.83
2022-10-09T06:23:50.677Z,4.50
2022-10-09T06:26:19.630Z,4.77
2022-10-09T06:28:48.188Z,5.00
2022-10-09T06:31:17.515Z,5.03
2022-10-09T06:33:47.706Z,4.37
2022-10-09T06:36:17.152Z,4.90
2022-10-09T06:38:47.130Z,5.07
2022-10-09T06:41:16.508Z,5.27
2022-10-09T06:43:49.217Z,5.20
2022-10-09T06:46:17.491Z,5.20
2022-10-09T06:48:45.570Z,5.03
2022-10-09T06:51:15.581Z,4.93
2022-10-09T06:53:45.367Z,5.43
2022-10-09T06:56:15.399Z,5.83
2022-10-09T06:58:43.839Z,5.30
2022-10-09T07:01:13.459Z,5.83
2022-10-09T07:03:43.678Z,5.30
2022-10-09T07:06:13.395Z,5.67
2022-10-09T07:08:42.963Z,6.00
2022-10-09T07:11:12.491Z,5.50
2022-10-09T07:13:42.514Z,6.10
2022-10-09T07:16:11.771Z,5.63
2022-10-09T07:18:40.738Z,5.40
2022-10-09T07:21:09.768Z,5.90
2022-10-09T07:23:38.145Z,5.87
2022-10-09T07:26:12.061Z,6.10
2022-10-09T07:28:42.317Z,5.77
2022-10-09T07:31:11.334Z,5.60
2022-10-09T07:33:40.168Z,5.17
2022-10-09T07:36:09.049Z,5.60
2022-10-09T07:38:37.415Z,5.33
2022-10-09T07:41:07.622Z,5.80
2022-10-09T07:43:36.998Z,5.40
2022-10-09T07:46:08.342Z,5.07
2022-10-09T07:48:36.617Z,4.80
2022-10-09T07:51:09.827Z,4.80
2022-10-09T07:53:38.725Z,5.40
2022-10-09T07:56:07.592Z,4.93
2022-10-09T07:58:35.815Z,4.80
2022-10-09T08:01:09.388Z,5.03
2022-10-09T08:03:38.861Z,4.60
2022-10-09T08:06:07.772Z,4.87
2022-10-09T08:08:35.797Z,5.07
2022-10-09T08:11:10.626Z,4.33
2022-10-09T08:13:38.691Z,4.40
2022-10-09T08:16:08.925Z,4.90
2022-10-09T08:18:37.682Z,4.37
2022-10-09T08:21:08.624Z,4.37
2022-10-09T08:23:36.742Z,4.77
2022-10-09T08:26:05.553Z,4.00
2022-10-09T08:28:33.559Z,4.30
2022-10-09T08:31:01.660Z,4.57
2022-10-09T08:33:31.093Z,4.10
2022-10-09T08:36:07.773Z,3.90
2022-10-09T08:38:47.159Z,3.60
2022-10-09T08:41:27.448Z,4.10
2022-10-09T08:44:02.188Z,3.67
2022-10-09T08:46:36.387Z,3.33
2022-10-09T08:49:06.399Z,3.07
2022-10-09T08:51:39.240Z,3.77
2022-10-09T08:54:22.944Z,3.80
2022-10-09T08:56:53.617Z,3.57
2022-10-09T08:59:21.647Z,3.70
2022-10-09T09:01:53.622Z,3.60
2022-10-09T09:04:34.945Z,3.67
2022-10-09T09:07:10.760Z,4.23
2022-10-09T09:09:46.957Z,3.67
2022-10-09T09:12:21.582Z,3.70
2022-10-09T09:15:02.382Z,3.73
2022-10-09T09:17:41.390Z,3.13
2022-10-09T09:20:17.930Z,3.60
2022-10-09T09:22:50.385Z,3.53
2022-10-09T09:25:22.565Z,3.60
2022-10-09T09:27:52.467Z,3.53
2022-10-09T09:30:24.281Z,2.97
2022-10-09T09:33:00.214Z,3.60
2022-10-09T09:35:36.940Z,3.40
2022-10-09T09:38:05.141Z,3.37
2022-10-09T09:40:37.623Z,3.27
2022-10-09T09:43:15.990Z,3.20
2022-10-09T09:45:44.834Z,3.13
2022-10-09T09:48:17.769Z,2.70
2022-10-09T09:50:56.396Z,2.70
2022-10-09T09:53:38.327Z,2.97
2022-10-09T09:56:07.473Z,2.77
2022-10-09T09:58:39.410Z,2.67
2022-10-09T10:01:08.737Z,2.70
2022-10-09T10:03:37.265Z,2.83
2022-10-09T10:06:23.537Z,2.30
2022-10-09T10:09:02.994Z,2.40
2022-10-09T10:11:32.395Z,2.10
2022-10-09T10:14:07.253Z,2.47
2022-10-09T10:16:38.389Z,2.60
2022-10-09T10:19:07.108Z,2.40
2022-10-09T10:21:47.800Z,2.67
2022-10-09T10:24:22.822Z,1.97
2022-10-09T10:26:55.684Z,2.33
2022-10-09T10:29:30.284Z,2.10
2022-10-09T10:32:05.488Z,2.70
2022-10-09T10:34:38.091Z,1.80
2022-10-09T10:37:26.977Z,2.00
2022-10-09T10:40:00.357Z,1.90
2022-10-09T10:42:41.572Z,1.93
2022-10-09T10:45:16.995Z,1.77
2022-10-09T10:47:52.149Z,1.73
2022-10-09T10:50:21.758Z,2.20
2022-10-09T10:53:02.437Z,1.87
2022-10-09T10:55:48.534Z,1.80
2022-10-09T10:58:30.393Z,1.90
2022-10-09T11:01:30.485Z,1.67
2022-10-09T11:04:26.810Z,1.77
2022-10-09T11:07:03.418Z,1.87
2022-10-09T11:09:43.452Z,1.83
2022-10-09T11:12:29.960Z,1.60
2022-10-09T11:15:16.960Z,1.43
2022-10-09T11:17:51.561Z,1.53
2022-10-09T11:20:44.639Z,2.27
2022-10-09T11:23:22.416Z,1.70
2022-10-09T11:25:58.294Z,1.40
2022-10-09T11:28:34.107Z,1.60
2022-10-09T11:31:10.890Z,1.60
2022-10-09T11:33:45.351Z,1.77
2022-10-09T11:36:18.076Z,1.63
2022-10-09T11:38:53.607Z,1.63
2022-10-09T11:41:26.283Z,1.40
2022-10-09T11:44:21.482Z,1.43
2022-10-09T11:47:29.806Z,1.47
2022-10-09T11:50:18.099Z,1.70
2022-10-09T11:52:55.626Z,1.37
2022-10-09T11:55:25.986Z,1.40
2022-10-09T11:57:55.479Z,1.60
2022-10-09T12:00:31.779Z,1.30
2022-10-09T12:03:01.841Z,1.70
2022-10-09T12:05:39.362Z,1.30
2022-10-09T12:08:12.954Z,1.30
2022-10-09T12:10:50.937Z,1.30
2022-10-09T12:13:41.856Z,1.20
2022-10-09T12:16:29.216Z,1.10
2022-10-09T12:18:58.050Z,1.30
2022-10-09T12:21:28.760Z,1.13
2022-10-09T12:23:57.040Z,1.40
2022-10-09T12:26:26.770Z,1.10
2022-10-09T12:29:00.690Z,1.90
2022-10-09T12:31:31.347Z,1.40
2022-10-09T12:34:04.665Z,1.30
2022-10-09T12:36:33.586Z,1.40
2022-10-09T12:39:14.401Z,1.60
2022-10-09T12:41:45.702Z,1.33
2022-10-09T12:44:29.808Z,1.30
2022-10-09T12:47:03.645Z,1.43
2022-10-09T12:49:32.437Z,1.40
2022-10-09T12:52:01.446Z,1.60
2022-10-09T12:54:31.853Z,1.83
2022-10-09T12:57:01.795Z,1.70
2022-10-09T12:59:31.453Z,1.70
2022-10-09T13:02:01.080Z,1.80
2022-10-09T13:04:31.831Z,1.70
2022-10-09T13:07:03.055Z,1.70
2022-10-09T13:09:37.015Z,2.10
2022-10-09T13:12:09.448Z,2.40
2022-10-09T13:14:45.211Z,1.60
2022-10-09T13:17:29.238Z,1.50
2022-10-09T13:19:59.469Z,1.40
2022-10-09T13:22:30.028Z,1.87
2022-10-09T13:25:00.562Z,1.70
2022-10-09T13:27:30.950Z,1.30
2022-10-09T13:30:01.417Z,1.40
2022-10-09T13:32:29.526Z,1.30
2022-10-09T13:34:58.213Z,1.40
2022-10-09T13:37:27.709Z,1.20
2022-10-09T13:39:58.047Z,1.30
2022-10-09T13:42:29.375Z,1.40
2022-10-09T13:44:57.491Z,1.47
2022-10-09T13:47:26.841Z,1.10
2022-10-09T13:49:55.655Z,1.20
2022-10-09T13:52:23.651Z,1.70
2022-10-09T13:54:51.675Z,1.10
2022-10-09T13:57:19.862Z,1.20
2022-10-09T13:59:47.861Z,1.20
2022-10-09T14:02:15.917Z,1.80
2022-10-09T14:04:45.606Z,1.47
2022-10-09T14:07:13.747Z,1.30
2022-10-09T14:09:41.769Z,1.20
2022-10-09T14:12:09.837Z,1.40
2022-10-09T14:14:38.950Z,1.50
2022-10-09T14:17:08.940Z,1.37
2022-10-09T14:19:37.346Z,1.33
2022-10-09T14:22:06.749Z,1.30
2022-10-09T14:24:34.965Z,1.20
2022-10-09T14:27:03.334Z,1.47
2022-10-09T14:29:31.333Z,1.33
2022-10-09T14:31:59.479Z,1.43
2022-10-09T14:34:27.492Z,2.23
2022-10-09T14:36:55.494Z,1.40
2022-10-09T14:39:24.863Z,1.43
2022-10-09T14:41:52.974Z,1.40
2022-10-09T14:44:20.999Z,1.23
2022-10-09T14:46:49.032Z,1.40
2022-10-09T14:49:17.021Z,1.73
2022-10-09T14:51:45.105Z,1.30
2022-10-09T14:54:13.974Z,1.40
2022-10-09T14:56:43.350Z,1.40
2022-10-09T14:59:11.370Z,1.23
2022-10-09T15:01:39.445Z,1.70
2022-10-09T15:04:07.852Z,1.23
2022-10-09T15:06:35.949Z,1.50
2022-10-09T15:09:06.208Z,1.50
2022-10-09T15:11:35.396Z,1.37
2022-10-09T15:14:05.276Z,2.10
2022-10-09T15:16:33.333Z,2.70
2022-10-09T15:19:01.366Z,2.10
2022-10-09T15:21:31.690Z,1.90
2022-10-09T15:24:01.299Z,1.70
2022-10-09T15:26:32.709Z,1.60
2022-10-09T15:29:04.891Z,1.80
2022-10-09T15:31:34.625Z,1.50
2022-10-09T15:34:03.366Z,1.70
2022-10-09T15:36:34.426Z,1.50
2022-10-09T15:39:05.636Z,1.40
2022-10-09T15:41:35.165Z,1.20
2022-10-09T15:44:06.548Z,1.70
2022-10-09T15:46:34.821Z,1.40
2022-10-09T15:49:02.813Z,1.50
2022-10-09T15:51:33.076Z,1.30
2022-10-09T15:54:01.550Z,1.53
2022-10-09T15:56:30.466Z,1.50
2022-10-09T15:58:59.483Z,1.20
2022-10-09T16:01:28.888Z,1.50
2022-10-09T16:03:57.926Z,1.40
2022-10-09T16:06:25.925Z,1.63
2022-10-09T16:08:57.637Z,1.20
2022-10-09T16:11:26.782Z,2.07
2022-10-09T16:13:56.387Z,1.93
2022-10-09T16:16:25.812Z,1.90
2022-10-09T16:18:56.121Z,1.67
2022-10-09T16:21:25.958Z,1.90
2022-10-09T16:23:58.399Z,1.80
2022-10-09T16:26:28.221Z,2.20
2022-10-09T16:28:56.391Z,2.27
2022-10-09T16:31:26.881Z,2.50
2022-10-09T16:33:56.566Z,2.13
2022-10-09T16:36:24.724Z,2.40
2022-10-09T16:38:52.797Z,2.20
2022-10-09T16:41:22.370Z,1.97
2022-10-09T16:43:52.743Z,1.67
2022-10-09T16:46:22.746Z,1.93
2022-10-09T16:48:52.237Z,1.90
2022-10-09T16:51:24.045Z,1.60
2022-10-09T16:53:53.005Z,1.70
2022-10-09T16:56:23.027Z,2.83
2022-10-09T16:58:55.569Z,2.10
2022-10-09T17:01:23.695Z,2.60
2022-10-09T17:03:51.811Z,2.23
2022-10-09T17:06:23.533Z,2.17
2022-10-09T17:08:52.436Z,2.47
2022-10-09T17:11:20.731Z,2.20
2022-10-09T17:13:49.263Z,2.17
2022-10-09T17:16:19.647Z,2.30
2022-10-09T17:18:49.569Z,2.40
2022-10-09T17:21:19.690Z,2.07
2022-10-09T17:23:53.303Z,2.03
2022-10-09T17:26:22.523Z,2.40
2022-10-09T17:28:50.912Z,2.20
2022-10-09T17:31:22.087Z,2.27
2022-10-09T17:33:51.662Z,2.23
2022-10-09T17:36:23.733Z,2.43
2022-10-09T17:38:54.795Z,2.47
2022-10-09T17:41:25.347Z,2.37
2022-10-09T17:43:54.421Z,2.50
2022-10-09T17:46:23.744Z,2.57
2022-10-09T17:48:53.371Z,2.33
2022-10-09T17:51:23.883Z,2.73
2022-10-09T17:53:54.313Z,2.57
2022-10-09T17:56:22.423Z,2.20
2022-10-09T17:58:50.539Z,2.20
2022-10-09T18:01:18.842Z,4.87
2022-10-09T18:03:46.989Z,2.60
2022-10-09T18:06:16.984Z,3.03
2022-10-09T18:08:45.528Z,3.00
2022-10-09T18:11:16.985Z,2.63
2022-10-09T18:13:45.907Z,3.13
2022-10-09T18:16:16.965Z,3.50
2022-10-09T18:18:45.598Z,3.67
2022-10-09T18:21:17.585Z,3.63
2022-10-09T18:23:46.914Z,3.43
2022-10-09T18:26:19.303Z,4.33
2022-10-09T18:28:48.645Z,4.33
2022-10-09T18:31:19.447Z,5.13
2022-10-09T18:33:47.926Z,9.60
2022-10-09T18:36:19.600Z,9.00
2022-10-09T18:38:49.002Z,21.83
2022-10-09T18:41:19.166Z,34.23
2022-10-09T18:43:48.533Z,49.57
2022-10-09T18:46:18.215Z,41.33
2022-10-09T18:48:47.723Z,44.37
2022-10-09T18:51:18.735Z,41.47
2022-10-09T18:53:50.078Z,36.73
2022-10-09T18:56:24.829Z,41.27
2022-10-09T18:58:54.421Z,33.03
2022-10-09T19:01:22.924Z,31.90
2022-10-09T19:03:51.534Z,22.10
2022-10-09T19:06:20.209Z,24.00
2022-10-09T19:08:48.815Z,21.20
2022-10-09T19:11:17.309Z,18.13
2022-10-09T19:13:47.141Z,13.17
2022-10-09T19:16:15.606Z,9.40
2022-10-09T19:18:43.978Z,8.03
2022-10-09T19:21:14.977Z,4.50
2022-10-09T19:23:43.947Z,4.93
2022-10-09T19:26:14.488Z,5.47
2022-10-09T19:28:42.997Z,3.20
2022-10-09T19:31:14.072Z,3.50
2022-10-09T19:33:43.588Z,3.33
2022-10-09T19:36:13.880Z,3.40
2022-10-09T19:38:42.650Z,3.17
2022-10-09T19:41:13.264Z,3.20
2022-10-09T19:43:42.001Z,2.80
2022-10-09T19:46:14.158Z,2.70
2022-10-09T19:48:42.676Z,2.70
2022-10-09T19:51:19.513Z,4.40
2022-10-09T19:53:48.109Z,3.40
2022-10-09T19:56:18.554Z,3.97
2022-10-09T19:58:48.939Z,3.90
2022-10-09T20:01:21.662Z,4.60
2022-10-09T20:03:54.898Z,3.17
2022-10-09T20:06:23.388Z,3.33
2022-10-09T20:08:51.915Z,2.70
2022-10-09T20:11:20.989Z,2.43
2022-10-09T20:13:55.518Z,2.30
2022-10-09T20:16:27.836Z,2.03
2022-10-09T20:18:56.469Z,1.80
2022-10-09T20:21:24.899Z,2.37
2022-10-09T20:23:54.006Z,2.37
2022-10-09T20:26:22.830Z,2.13
2022-10-09T20:28:53.776Z,2.10
2022-10-09T20:31:24.663Z,1.50
2022-10-09T20:33:55.424Z,2.00
2022-10-09T20:36:27.373Z,1.87
2022-10-09T20:38:57.596Z,2.00
2022-10-09T20:41:28.887Z,1.93
2022-10-09T20:43:59.720Z,2.03
2022-10-09T20:46:29.037Z,2.10
2022-10-09T20:48:58.750Z,2.10
2022-10-09T20:51:27.789Z,2.00
2022-10-09T20:53:58.559Z,2.27
2022-10-09T20:56:28.975Z,1.90
2022-10-09T20:58:57.678Z,1.80
2022-10-09T21:01:28.404Z,1.80
2022-10-09T21:03:59.554Z,2.00
2022-10-09T21:06:30.138Z,2.03
2022-10-09T21:08:59.033Z,2.17
2022-10-09T21:11:27.778Z,1.90
2022-10-09T21:13:56.155Z,1.80
2022-10-09T21:16:25.584Z,2.10
2022-10-09T21:18:56.316Z,1.67
2022-10-09T21:21:26.117Z,1.70
2022-10-09T21:23:56.179Z,1.70
2022-10-09T21:26:25.572Z,1.50
2022-10-09T21:28:59.045Z,1.93
2022-10-09T21:31:29.257Z,1.70
2022-10-09T21:33:57.800Z,1.53
2022-10-09T21:36:33.762Z,1.70
2022-10-09T21:39:01.822Z,1.60
2022-10-09T21:41:29.825Z,1.97
2022-10-09T21:43:58.174Z,1.63
2022-10-09T21:46:26.426Z,1.50
2022-10-09T21:48:54.695Z,1.53
2022-10-09T21:51:22.878Z,1.80
2022-10-09T21:53:54.232Z,1.37
2022-10-09T21:56:23.131Z,2.00
2022-10-09T21:58:51.665Z,1.60
2022-10-09T22:01:19.813Z,1.83
2022-10-09T22:03:47.906Z,1.83
2022-10-09T22:06:19.076Z,2.13
2022-10-09T22:08:47.865Z,1.40
2022-10-09T22:11:17.830Z,1.97
2022-10-09T22:13:45.896Z,2.30
2022-10-09T22:16:15.914Z,1.60
2022-10-09T22:18:44.135Z,2.00
2022-10-09T22:21:14.457Z,1.63
2022-10-09T22:23:42.910Z,1.60
2022-10-09T22:26:14.679Z,1.73
2022-10-09T22:28:44.257Z,1.87
2022-10-09T22:31:14.486Z,1.70
2022-10-09T22:33:42.891Z,1.70
2022-10-09T22:36:12.756Z,2.00
2022-10-09T22:38:41.599Z,1.60
2022-10-09T22:41:11.283Z,2.10
2022-10-09T22:43:40.834Z,1.70
2022-10-09T22:46:12.594Z,1.63
2022-10-09T22:48:41.916Z,1.67
2022-10-09T22:51:12.419Z,1.57
2022-10-09T22:53:41.738Z,1.40
2022-10-09T22:56:12.542Z,2.30
2022-10-09T22:58:40.602Z,1.50
2022-10-09T23:01:13.559Z,1.40
2022-10-09T23:03:41.669Z,1.60
2022-10-09T23:06:11.910Z,1.70
2022-10-09T23:08:41.021Z,1.50
2022-10-09T23:11:10.024Z,1.50
2022-10-09T23:13:38.991Z,1.73
2022-10-09T23:16:10.003Z,1.67
2022-10-09T23:18:40.069Z,1.53
2022-10-09T23:21:09.625Z,1.60
2022-10-09T23:23:37.950Z,1.50
2022-10-09T23:26:06.389Z,2.10
2022-10-09T23:28:34.687Z,1.50
2022-10-09T23:31:04.274Z,1.50
2022-10-09T23:33:32.482Z,1.70
2022-10-09T23:36:03.165Z,1.73
2022-10-09T23:38:31.214Z,1.73
2022-10-09T23:41:00.458Z,1.60
2022-10-09T23:43:29.570Z,1.50
2022-10-09T23:45:59.392Z,1.90
2022-10-09T23:48:28.180Z,1.30
2022-10-09T23:50:57.306Z,1.50
2022-10-09T23:53:27.783Z,1.77
2022-10-09T23:55:55.871Z,1.47
2022-10-09T23:58:24.544Z,1.47
